sensor_id;sensor_type;location;lat;lon;timestamp;P1;P2;P0
55549;PMS7003;41397;49.972;18.944;2022-09-01T00:04:05;5;5;4
55549;PMS7003;41397;49.972;18.944;2022-09-01T00:09:21;9;9;7
55549;PMS7003;41397;49.972;18.944;2022-09-01T00:14:37;8;8;5
55549;PMS7003;41397;49.972;18.944;2022-09-01T00:19:52;7;7;7
55549;PMS7003;41397;49.972;18.944;2022-09-01T00:23:05;7;7;6
55549;PMS7003;41397;49.972;18.944;2022-09-01T00:25:06;4;4;4
55549;PMS7003;41397;49.972;18.944;2022-09-01T00:30:21;5;5;5
55549;PMS7003;41397;49.972;18.944;2022-09-01T00:35:35;8;8;5
55549;PMS7003;41397;49.972;18.944;2022-09-01T00:40:49;10;10;9
55549;PMS7003;41397;49.972;18.944;2022-09-01T00:46:03;6;6;6
55549;PMS7003;41397;49.972;18.944;2022-09-01T00:51:19;5;5;4
55549;PMS7003;41397;49.972;18.944;2022-09-01T00:53:18;1;1;1
55549;PMS7003;41397;49.972;18.944;2022-09-01T00:56:33;2;2;2
55549;PMS7003;41397;49.972;18.944;2022-09-01T01:01:51;5;5;4
55549;PMS7003;41397;49.972;18.944;2022-09-01T01:07:05;4;4;4
55549;PMS7003;41397;49.972;18.944;2022-09-01T01:12:21;3;3;3
55549;PMS7003;41397;49.972;18.944;2022-09-01T01:17:35;5;5;4
55549;PMS7003;41397;49.972;18.944;2022-09-01T01:23:34;5;5;4
55549;PMS7003;41397;49.972;18.944;2022-09-01T01:28:19;3;3;3
55549;PMS7003;41397;49.972;18.944;2022-09-01T01:33:43;4;4;4
55549;PMS7003;41397;49.972;18.944;2022-09-01T01:38:59;4;4;4
55549;PMS7003;41397;49.972;18.944;2022-09-01T01:44:19;3;3;3
55549;PMS7003;41397;49.972;18.944;2022-09-01T01:49:40;4;4;4
55549;PMS7003;41397;49.972;18.944;2022-09-01T01:53:53;3;3;3
55549;PMS7003;41397;49.972;18.944;2022-09-01T01:54:56;6;6;5
55549;PMS7003;41397;49.972;18.944;2022-09-01T02:00:11;8;8;8
55549;PMS7003;41397;49.972;18.944;2022-09-01T02:05:32;4;4;4
55549;PMS7003;41397;49.972;18.944;2022-09-01T02:10:52;9;9;9
55549;PMS7003;41397;49.972;18.944;2022-09-01T02:24:11;7;7;6
55549;PMS7003;41397;49.972;18.944;2022-09-01T02:26:49;8;8;5
55549;PMS7003;41397;49.972;18.944;2022-09-01T02:32:03;6;6;5
55549;PMS7003;41397;49.972;18.944;2022-09-01T02:37:16;10;10;7
55549;PMS7003;41397;49.972;18.944;2022-09-01T02:42:36;7;7;5
55549;PMS7003;41397;49.972;18.944;2022-09-01T02:47:55;6;6;5
55549;PMS7003;41397;49.972;18.944;2022-09-01T02:53:10;5;5;5
55549;PMS7003;41397;49.972;18.944;2022-09-01T02:54:25;2;2;2
55549;PMS7003;41397;49.972;18.944;2022-09-01T02:58:28;9;9;7
55549;PMS7003;41397;49.972;18.944;2022-09-01T03:03:51;7;7;5
55549;PMS7003;41397;49.972;18.944;2022-09-01T03:09:08;7;7;6
55549;PMS7003;41397;49.972;18.944;2022-09-01T03:14:28;9;9;7
55549;PMS7003;41397;49.972;18.944;2022-09-01T03:19:44;6;6;6
55549;PMS7003;41397;49.972;18.944;2022-09-01T03:24:41;6;6;6
55549;PMS7003;41397;49.972;18.944;2022-09-01T03:24:58;6;6;6
55549;PMS7003;41397;49.972;18.944;2022-09-01T03:30:12;5;5;5
55549;PMS7003;41397;49.972;18.944;2022-09-01T03:35:27;4;4;4
55549;PMS7003;41397;49.972;18.944;2022-09-01T03:40:46;4;4;4
55549;PMS7003;41397;49.972;18.944;2022-09-01T03:46:03;5;5;4
55549;PMS7003;41397;49.972;18.944;2022-09-01T03:51:18;7;7;5
55549;PMS7003;41397;49.972;18.944;2022-09-01T03:54:56;5;5;4
55549;PMS7003;41397;49.972;18.944;2022-09-01T03:56:34;9;9;6
55549;PMS7003;41397;49.972;18.944;2022-09-01T04:01:52;1;1;1
55549;PMS7003;41397;49.972;18.944;2022-09-01T04:07:06;4;4;4
55549;PMS7003;41397;49.972;18.944;2022-09-01T04:12:20;9;9;6
55549;PMS7003;41397;49.972;18.944;2022-09-01T04:17:38;3;3;3
55549;PMS7003;41397;49.972;18.944;2022-09-01T04:23:05;9;9;8
55549;PMS7003;41397;49.972;18.944;2022-09-01T04:25:12;2;2;2
55549;PMS7003;41397;49.972;18.944;2022-09-01T04:28:23;8;8;8
55549;PMS7003;41397;49.972;18.944;2022-09-01T04:33:42;10;10;6
55549;PMS7003;41397;49.972;18.944;2022-09-01T04:38:59;6;6;3
55549;PMS7003;41397;49.972;18.944;2022-09-01T04:44:24;4;4;4
55549;PMS7003;41397;49.972;18.944;2022-09-01T04:49:40;5;5;4
55549;PMS7003;41397;49.972;18.944;2022-09-01T04:54:59;5;5;3
55549;PMS7003;41397;49.972;18.944;2022-09-01T04:55:30;6;6;6
55549;PMS7003;41397;49.972;18.944;2022-09-01T05:00:15;4;4;4
55549;PMS7003;41397;49.972;18.944;2022-09-01T05:05:41;9;9;9
55549;PMS7003;41397;49.972;18.944;2022-09-01T05:10:57;5;5;3
55549;PMS7003;41397;49.972;18.944;2022-09-01T05:16:16;6;6;6
55549;PMS7003;41397;49.972;18.944;2022-09-01T05:21:36;6;6;5
55549;PMS7003;41397;49.972;18.944;2022-09-01T05:25:44;6;6;6
55549;PMS7003;41397;49.972;18.944;2022-09-01T05:26:51;6;6;5
55549;PMS7003;41397;49.972;18.944;2022-09-01T05:32:05;3;3;3
55549;PMS7003;41397;49.972;18.944;2022-09-01T05:37:25;6;6;5
55549;PMS7003;41397;49.972;18.944;2022-09-01T05:42:42;3;3;3
55549;PMS7003;41397;49.972;18.944;2022-09-01T05:47:58;3;3;3
55549;PMS7003;41397;49.972;18.944;2022-09-01T05:53:12;2;2;2
55549;PMS7003;41397;49.972;18.944;2022-09-01T05:56:04;4;4;4
55549;PMS7003;41397;49.972;18.944;2022-09-01T05:58:29;4;4;3
55549;PMS7003;41397;49.972;18.944;2022-09-01T06:03:44;5;5;5
55549;PMS7003;41397;49.972;18.944;2022-09-01T06:08:58;5;5;3
55549;PMS7003;41397;49.972;18.944;2022-09-01T06:14:14;2;2;2
55549;PMS7003;41397;49.972;18.944;2022-09-01T06:19:29;0;0;0
55549;PMS7003;41397;49.972;18.944;2022-09-01T06:24:45;2;2;2
55549;PMS7003;41397;49.972;18.944;2022-09-01T06:26:27;1;1;1
55549;PMS7003;41397;49.972;18.944;2022-09-01T06:30:00;4;4;3
55549;PMS7003;41397;49.972;18.944;2022-09-01T06:35:20;3;3;3
55549;PMS7003;41397;49.972;18.944;2022-09-01T06:40:42;1;1;1
55549;PMS7003;41397;49.972;18.944;2022-09-01T06:45:59;6;6;6
55549;PMS7003;41397;49.972;18.944;2022-09-01T06:51:18;3;3;3
55549;PMS7003;41397;49.972;18.944;2022-09-01T06:56:34;1;1;1
55549;PMS7003;41397;49.972;18.944;2022-09-01T06:56:48;1;1;1
55549;PMS7003;41397;49.972;18.944;2022-09-01T07:01:48;6;6;4
55549;PMS7003;41397;49.972;18.944;2022-09-01T07:07:06;4;4;3
55549;PMS7003;41397;49.972;18.944;2022-09-01T07:12:22;3;3;3
55549;PMS7003;41397;49.972;18.944;2022-09-01T07:17:36;0;0;0
55549;PMS7003;41397;49.972;18.944;2022-09-01T07:22:55;1;1;1
55549;PMS7003;41397;49.972;18.944;2022-09-01T07:27:02;0;0;0
55549;PMS7003;41397;49.972;18.944;2022-09-01T07:28:11;4;4;4
55549;PMS7003;41397;49.972;18.944;2022-09-01T07:33:30;0;0;0
55549;PMS7003;41397;49.972;18.944;2022-09-01T07:38:45;2;2;2
55549;PMS7003;41397;49.972;18.944;2022-09-01T07:44:07;0;0;0
55549;PMS7003;41397;49.972;18.944;2022-09-01T07:49:27;1;1;1
55549;PMS7003;41397;49.972;18.944;2022-09-01T07:54:41;3;3;2
55549;PMS7003;41397;49.972;18.944;2022-09-01T07:57:16;0;0;0
55549;PMS7003;41397;49.972;18.944;2022-09-01T07:59:54;0;0;0
55549;PMS7003;41397;49.972;18.944;2022-09-01T08:05:11;3;3;2
55549;PMS7003;41397;49.972;18.944;2022-09-01T08:10:29;0;0;0
55549;PMS7003;41397;49.972;18.944;2022-09-01T08:15:44;1;1;1
55549;PMS7003;41397;49.972;18.944;2022-09-01T08:20:58;0;0;0
55549;PMS7003;41397;49.972;18.944;2022-09-01T08:26:15;1;1;1
55549;PMS7003;41397;49.972;18.944;2022-09-01T08:27:31;0;0;0
55549;PMS7003;41397;49.972;18.944;2022-09-01T08:31:30;0;0;0
55549;PMS7003;41397;49.972;18.944;2022-09-01T08:36:46;0;0;0
55549;PMS7003;41397;49.972;18.944;2022-09-01T08:47:28;1;1;0
55549;PMS7003;41397;49.972;18.944;2022-09-01T08:57:48;1;1;1
55549;PMS7003;41397;49.972;18.944;2022-09-01T08:58:15;0;0;0
55549;PMS7003;41397;49.972;18.944;2022-09-01T09:08:58;0;0;0
55549;PMS7003;41397;49.972;18.944;2022-09-01T09:14:21;0;0;0
55549;PMS7003;41397;49.972;18.944;2022-09-01T09:19:43;0;0;0
55549;PMS7003;41397;49.972;18.944;2022-09-01T09:25:04;0;0;0
55549;PMS7003;41397;49.972;18.944;2022-09-01T09:28:04;0;0;0
55549;PMS7003;41397;49.972;18.944;2022-09-01T09:30:27;0;0;0
55549;PMS7003;41397;49.972;18.944;2022-09-01T09:35:45;0;0;0
55549;PMS7003;41397;49.972;18.944;2022-09-01T09:51:50;0;0;0
55549;PMS7003;41397;49.972;18.944;2022-09-01T09:57:11;0;0;0
55549;PMS7003;41397;49.972;18.944;2022-09-01T09:58:18;0;0;0
55549;PMS7003;41397;49.972;18.944;2022-09-01T10:02:34;0;0;0
55549;PMS7003;41397;49.972;18.944;2022-09-01T10:07:50;1;1;1
55549;PMS7003;41397;49.972;18.944;2022-09-01T10:13:09;0;0;0
55549;PMS7003;41397;49.972;18.944;2022-09-01T10:18:31;0;0;0
55549;PMS7003;41397;49.972;18.944;2022-09-01T10:23:49;0;0;0
55549;PMS7003;41397;49.972;18.944;2022-09-01T10:29:00;0;0;0
55549;PMS7003;41397;49.972;18.944;2022-09-01T10:34:33;0;0;0
55549;PMS7003;41397;49.972;18.944;2022-09-01T10:45:16;0;0;0
55549;PMS7003;41397;49.972;18.944;2022-09-01T10:50:36;0;0;0
55549;PMS7003;41397;49.972;18.944;2022-09-01T10:56:10;0;0;0
55549;PMS7003;41397;49.972;18.944;2022-09-01T10:59:09;1;1;1
55549;PMS7003;41397;49.972;18.944;2022-09-01T11:01:41;0;0;0
55549;PMS7003;41397;49.972;18.944;2022-09-01T11:17:36;2;2;1
55549;PMS7003;41397;49.972;18.944;2022-09-01T11:55:37;0;0;0
55549;PMS7003;41397;49.972;18.944;2022-09-01T11:59:55;0;0;0
55549;PMS7003;41397;49.972;18.944;2022-09-01T12:00:54;0;0;0
55549;PMS7003;41397;49.972;18.944;2022-09-01T12:06:25;1;1;1
55549;PMS7003;41397;49.972;18.944;2022-09-01T12:11:39;0;0;0
55549;PMS7003;41397;49.972;18.944;2022-09-01T12:16:58;1;1;0
55549;PMS7003;41397;49.972;18.944;2022-09-01T12:22:19;1;1;1
55549;PMS7003;41397;49.972;18.944;2022-09-01T12:27:34;0;0;0
55549;PMS7003;41397;49.972;18.944;2022-09-01T12:30:11;0;0;0
55549;PMS7003;41397;49.972;18.944;2022-09-01T12:32:48;0;0;0
55549;PMS7003;41397;49.972;18.944;2022-09-01T12:48:50;0;0;0
55549;PMS7003;41397;49.972;18.944;2022-09-01T12:54:04;0;0;0
55549;PMS7003;41397;49.972;18.944;2022-09-01T12:59:22;1;1;1
55549;PMS7003;41397;49.972;18.944;2022-09-01T13:00:26;0;0;0
55549;PMS7003;41397;49.972;18.944;2022-09-01T13:04:37;0;0;0
55549;PMS7003;41397;49.972;18.944;2022-09-01T13:09:53;0;0;0
55549;PMS7003;41397;49.972;18.944;2022-09-01T13:15:07;0;0;0
55549;PMS7003;41397;49.972;18.944;2022-09-01T13:20:22;0;0;0
55549;PMS7003;41397;49.972;18.944;2022-09-01T13:25:36;0;0;0
55549;PMS7003;41397;49.972;18.944;2022-09-01T13:30:44;0;0;0
55549;PMS7003;41397;49.972;18.944;2022-09-01T13:31:05;0;0;0
55549;PMS7003;41397;49.972;18.944;2022-09-01T13:36:19;0;0;0
55549;PMS7003;41397;49.972;18.944;2022-09-01T13:41:34;0;0;0
55549;PMS7003;41397;49.972;18.944;2022-09-01T13:46:47;0;0;0
55549;PMS7003;41397;49.972;18.944;2022-09-01T13:52:01;0;0;0
55549;PMS7003;41397;49.972;18.944;2022-09-01T13:57:15;3;3;1
55549;PMS7003;41397;49.972;18.944;2022-09-01T14:01:05;0;0;0
55549;PMS7003;41397;49.972;18.944;2022-09-01T14:02:32;0;0;0
55549;PMS7003;41397;49.972;18.944;2022-09-01T14:07:48;0;0;0
55549;PMS7003;41397;49.972;18.944;2022-09-01T14:13:02;0;0;0
55549;PMS7003;41397;49.972;18.944;2022-09-01T14:18:18;0;0;0
55549;PMS7003;41397;49.972;18.944;2022-09-01T14:23:34;0;0;0
55549;PMS7003;41397;49.972;18.944;2022-09-01T14:28:47;0;0;0
55549;PMS7003;41397;49.972;18.944;2022-09-01T14:31:19;0;0;0
55549;PMS7003;41397;49.972;18.944;2022-09-01T14:34:01;0;0;0
55549;PMS7003;41397;49.972;18.944;2022-09-01T14:39:16;0;0;0
55549;PMS7003;41397;49.972;18.944;2022-09-01T14:44:30;0;0;0
55549;PMS7003;41397;49.972;18.944;2022-09-01T14:49:46;0;0;0
55549;PMS7003;41397;49.972;18.944;2022-09-01T14:55:00;0;0;0
55549;PMS7003;41397;49.972;18.944;2022-09-01T15:00:15;0;0;0
55549;PMS7003;41397;49.972;18.944;2022-09-01T15:01:33;0;0;0
55549;PMS7003;41397;49.972;18.944;2022-09-01T15:05:32;0;0;0
55549;PMS7003;41397;49.972;18.944;2022-09-01T15:10:49;0;0;0
55549;PMS7003;41397;49.972;18.944;2022-09-01T15:16:16;0;0;0
55549;PMS7003;41397;49.972;18.944;2022-09-01T15:21:28;0;0;0
55549;PMS7003;41397;49.972;18.944;2022-09-01T15:26:45;0;0;0
55549;PMS7003;41397;49.972;18.944;2022-09-01T15:31:47;0;0;0
55549;PMS7003;41397;49.972;18.944;2022-09-01T15:32:00;0;0;0
55549;PMS7003;41397;49.972;18.944;2022-09-01T15:37:15;0;0;0
55549;PMS7003;41397;49.972;18.944;2022-09-01T15:42:29;0;0;0
55549;PMS7003;41397;49.972;18.944;2022-09-01T15:47:43;0;0;0
55549;PMS7003;41397;49.972;18.944;2022-09-01T15:53:43;0;0;0
55549;PMS7003;41397;49.972;18.944;2022-09-01T15:58:58;1;1;1
55549;PMS7003;41397;49.972;18.944;2022-09-01T16:04:20;0;0;0
55549;PMS7003;41397;49.972;18.944;2022-09-01T16:09:35;9;9;6
55549;PMS7003;41397;49.972;18.944;2022-09-01T16:14:49;1;1;1
55549;PMS7003;41397;49.972;18.944;2022-09-01T16:18:45;0;0;0
55549;PMS7003;41397;49.972;18.944;2022-09-01T16:20:10;1;1;0
55549;PMS7003;41397;49.972;18.944;2022-09-01T16:25:32;0;0;0
55549;PMS7003;41397;49.972;18.944;2022-09-01T16:30:48;1;1;1
55549;PMS7003;41397;49.972;18.944;2022-09-01T16:36:09;0;0;0
55549;PMS7003;41397;49.972;18.944;2022-09-01T16:41:36;1;1;1
55549;PMS7003;41397;49.972;18.944;2022-09-01T16:52:25;1;1;1
55549;PMS7003;41397;49.972;18.944;2022-09-01T17:03:14;1;1;1
55549;PMS7003;41397;49.972;18.944;2022-09-01T17:08:31;1;1;1
55549;PMS7003;41397;49.972;18.944;2022-09-01T17:13:50;0;0;0
55549;PMS7003;41397;49.972;18.944;2022-09-01T17:19:06;0;0;0
55549;PMS7003;41397;49.972;18.944;2022-09-01T17:19:33;0;0;0
55549;PMS7003;41397;49.972;18.944;2022-09-01T17:24:30;1;1;1
55549;PMS7003;41397;49.972;18.944;2022-09-01T17:29:54;0;0;0
55549;PMS7003;41397;49.972;18.944;2022-09-01T17:35:11;2;2;1
55549;PMS7003;41397;49.972;18.944;2022-09-01T17:49:52;7;7;4
55549;PMS7003;41397;49.972;18.944;2022-09-01T18:07:53;6;6;6
55549;PMS7003;41397;49.972;18.944;2022-09-01T18:18:40;3;3;3
55549;PMS7003;41397;49.972;18.944;2022-09-01T18:20:20;5;5;5
55549;PMS7003;41397;49.972;18.944;2022-09-01T18:24:06;2;2;2
55549;PMS7003;41397;49.972;18.944;2022-09-01T18:29:27;3;3;3
55549;PMS7003;41397;49.972;18.944;2022-09-01T18:40:14;7;7;6
55549;PMS7003;41397;49.972;18.944;2022-09-01T18:45:35;5;5;4
55549;PMS7003;41397;49.972;18.944;2022-09-01T18:56:38;4;4;4
55549;PMS7003;41397;49.972;18.944;2022-09-01T19:02:02;4;4;4
55549;PMS7003;41397;49.972;18.944;2022-09-01T19:07:30;2;2;2
55549;PMS7003;41397;49.972;18.944;2022-09-01T19:13:39;1;1;1
55549;PMS7003;41397;49.972;18.944;2022-09-01T19:18:34;5;5;5
55549;PMS7003;41397;49.972;18.944;2022-09-01T19:21:07;10;6;5
55549;PMS7003;41397;49.972;18.944;2022-09-01T19:29:16;5;5;3
55549;PMS7003;41397;49.972;18.944;2022-09-01T19:34:35;5;5;5
55549;PMS7003;41397;49.972;18.944;2022-09-01T19:39:56;2;2;2
55549;PMS7003;41397;49.972;18.944;2022-09-01T19:45:12;2;2;2
55549;PMS7003;41397;49.972;18.944;2022-09-01T19:50:35;7;7;4
55549;PMS7003;41397;49.972;18.944;2022-09-01T19:51:29;8;8;6
55549;PMS7003;41397;49.972;18.944;2022-09-01T19:55:57;4;4;4
55549;PMS7003;41397;49.972;18.944;2022-09-01T20:01:39;5;5;5
55549;PMS7003;41397;49.972;18.944;2022-09-01T20:06:47;9;9;8
55549;PMS7003;41397;49.972;18.944;2022-09-01T20:17:47;6;6;5
55549;PMS7003;41397;49.972;18.944;2022-09-01T20:21:52;6;6;4
55549;PMS7003;41397;49.972;18.944;2022-09-01T20:23:14;3;3;3
55549;PMS7003;41397;49.972;18.944;2022-09-01T20:50:31;10;10;9
55549;PMS7003;41397;49.972;18.944;2022-09-01T20:52:09;8;8;8
55549;PMS7003;41397;49.972;18.944;2022-09-01T20:55:56;2;2;2
55549;PMS7003;41397;49.972;18.944;2022-09-01T21:01:42;4;4;3
55549;PMS7003;41397;49.972;18.944;2022-09-01T21:17:44;7;7;6
55549;PMS7003;41397;49.972;18.944;2022-09-01T21:22:28;10;10;10
55549;PMS7003;41397;49.972;18.944;2022-09-01T21:23:03;10;10;10
55549;PMS7003;41397;49.972;18.944;2022-09-01T21:28:18;6;6;6
55549;PMS7003;41397;49.972;18.944;2022-09-01T21:33:33;6;6;6
55549;PMS7003;41397;49.972;18.944;2022-09-01T21:38:47;13;13;10
55549;PMS7003;41397;49.972;18.944;2022-09-01T21:44:01;4;4;4
55549;PMS7003;41397;49.972;18.944;2022-09-01T21:49:15;5;5;5
55549;PMS7003;41397;49.972;18.944;2022-09-01T21:52:42;8;8;7
55549;PMS7003;41397;49.972;18.944;2022-09-01T21:54:29;8;8;8
55549;PMS7003;41397;49.972;18.944;2022-09-01T21:59:43;9;9;8
55549;PMS7003;41397;49.972;18.944;2022-09-01T22:04:56;13;13;11
55549;PMS7003;41397;49.972;18.944;2022-09-01T22:10:14;8;8;7
55549;PMS7003;41397;49.972;18.944;2022-09-01T22:15:29;9;9;8
55549;PMS7003;41397;49.972;18.944;2022-09-01T22:20:43;12;12;10
55549;PMS7003;41397;49.972;18.944;2022-09-01T22:22:56;8;8;7
55549;PMS7003;41397;49.972;18.944;2022-09-01T22:25:58;9;9;8
55549;PMS7003;41397;49.972;18.944;2022-09-01T22:31:12;14;14;11
55549;PMS7003;41397;49.972;18.944;2022-09-01T22:36:37;12;12;8
55549;PMS7003;41397;49.972;18.944;2022-09-01T22:41:48;12;12;8
55549;PMS7003;41397;49.972;18.944;2022-09-01T22:47:02;9;9;9
55549;PMS7003;41397;49.972;18.944;2022-09-01T22:52:15;5;5;5
55549;PMS7003;41397;49.972;18.944;2022-09-01T22:53:15;10;10;9
55549;PMS7003;41397;49.972;18.944;2022-09-01T22:57:29;6;6;6
55549;PMS7003;41397;49.972;18.944;2022-09-01T23:02:45;7;7;5
55549;PMS7003;41397;49.972;18.944;2022-09-01T23:08:03;4;4;2
55549;PMS7003;41397;49.972;18.944;2022-09-01T23:13:20;7;7;3
55549;PMS7003;41397;49.972;18.944;2022-09-01T23:18:38;5;5;5
55549;PMS7003;41397;49.972;18.944;2022-09-01T23:23:30;5;5;4
55549;PMS7003;41397;49.972;18.944;2022-09-01T23:23:55;9;9;6
55549;PMS7003;41397;49.972;18.944;2022-09-01T23:29:11;8;8;6
55549;PMS7003;41397;49.972;18.944;2022-09-01T23:34:28;7;7;7
55549;PMS7003;41397;49.972;18.944;2022-09-01T23:39:42;4;4;4
55549;PMS7003;41397;49.972;18.944;2022-09-01T23:44:55;6;6;5
55549;PMS7003;41397;49.972;18.944;2022-09-01T23:50:09;5;5;3
55549;PMS7003;41397;49.972;18.944;2022-09-01T23:53:45;6;6;5
55549;PMS7003;41397;49.972;18.944;2022-09-01T23:55:23;7;7;7
